Time;durP1;ratioP1;P1;durP2;ratioP2;P2;SDS_P1;SDS_P2;PMS_P1;PMS_P2;Temp;Humidity;BMP_temperature;BMP_pressure;BME280_temperature;BME280_humidity;BME280_pressure;Samples;Min_cycle;Max_cycle;Signal;HPM_P1;HPM_P2
2021/05/26 00:01:07;;;;;;;7.93;3.58;;;;;;;15.14;77.01;93634.28;5049795;28;20029;-41
2021/05/26 00:03:34;;;;;;;4.82;3.80;;;;;;;15.16;77.00;93634.47;5049776;28;20415;-41
2021/05/26 00:05:59;;;;;;;6.00;4.03;;;;;;;15.31;76.07;93632.81;5049369;28;20037;-41
2021/05/26 00:08:36;;;;;;;5.38;3.88;;;;;;;15.21;74.96;93632.72;5033333;28;20029;-41
2021/05/26 00:11:04;;;;;;;4.68;3.67;;;;;;;15.04;75.51;93633.50;5014038;28;20029;-44
2021/05/26 00:13:30;;;;;;;3.80;3.50;;;;;;;15.12;75.42;93636.91;5033610;28;20410;-41
2021/05/26 00:15:56;;;;;;;4.55;3.67;;;;;;;15.08;75.58;93630.28;5033387;28;20029;-41
2021/05/26 00:18:22;;;;;;;5.40;4.07;;;;;;;14.99;75.82;93631.69;5032969;28;20102;-41
2021/05/26 00:20:49;;;;;;;5.13;3.95;;;;;;;14.93;76.30;93630.47;5033459;28;20429;-42
2021/05/26 00:23:15;;;;;;;5.18;4.07;;;;;;;14.92;76.35;93632.50;5032951;28;20156;-41
2021/05/26 00:25:40;;;;;;;4.30;3.85;;;;;;;14.85;76.81;93627.78;5033252;28;20512;-43
2021/05/26 00:28:06;;;;;;;4.43;3.05;;;;;;;15.11;76.06;93626.38;5033243;28;20156;-42
2021/05/26 00:30:34;;;;;;;4.65;3.65;;;;;;;15.08;76.01;93622.69;5032896;28;20021;-41
2021/05/26 00:33:00;;;;;;;5.15;4.40;;;;;;;14.85;76.76;93621.47;5033151;28;20037;-41
2021/05/26 00:35:25;;;;;;;5.38;3.20;;;;;;;14.75;77.08;93618.63;5032848;28;20026;-40
2021/05/26 00:37:51;;;;;;;3.95;3.40;;;;;;;14.70;77.12;93627.94;5032489;28;20495;-42
2021/05/26 00:40:17;;;;;;;4.53;4.13;;;;;;;14.55;77.34;93625.31;5032533;28;20494;-42
2021/05/26 00:42:43;;;;;;;5.40;4.85;;;;;;;14.43;77.33;93618.75;5032918;28;20112;-41
2021/05/26 00:45:09;;;;;;;5.65;4.07;;;;;;;14.25;77.53;93603.34;5032861;28;20104;-44
2021/05/26 00:47:43;;;;;;;13.20;4.75;;;;;;;14.40;77.54;93614.34;5032761;28;20033;-41
2021/05/26 00:50:20;;;;;;;6.55;4.93;;;;;;;14.51;77.24;93618.69;5032902;28;20017;-41
2021/05/26 00:52:46;;;;;;;6.55;5.07;;;;;;;14.54;76.54;93623.09;5037833;28;20105;-44
2021/05/26 00:55:16;;;;;;;4.57;4.18;;;;;;;14.34;76.74;93614.56;5052541;28;20490;-41
2021/05/26 00:57:44;;;;;;;5.38;3.92;;;;;;;14.50;76.12;93614.44;5052577;28;20020;-41
2021/05/26 01:00:12;;;;;;;4.63;4.22;;;;;;;14.61;75.78;93614.69;5034482;28;20025;-40
2021/05/26 01:02:38;;;;;;;5.20;4.03;;;;;;;14.63;75.72;93614.84;5052251;28;20033;-44
2021/05/26 01:05:08;;;;;;;5.82;4.35;;;;;;;14.65;75.40;93611.50;5052310;28;20025;-41
2021/05/26 01:07:33;;;;;;;5.68;4.68;;;;;;;14.62;75.24;93616.16;5042677;28;20491;-43
2021/05/26 01:09:59;;;;;;;4.55;4.15;;;;;;;14.63;74.91;93620.41;5032497;28;20021;-43
2021/05/26 01:12:25;;;;;;;4.15;3.17;;;;;;;14.45;73.97;93607.81;5014497;28;20403;-40
2021/05/26 01:14:50;;;;;;;4.57;3.58;;;;;;;14.51;74.26;93610.38;5031758;28;20652;-40
2021/05/26 01:17:16;;;;;;;4.63;4.07;;;;;;;14.26;76.26;93618.69;5031918;28;20129;-42
2021/05/26 01:19:42;;;;;;;5.93;4.57;;;;;;;14.12;76.44;93611.97;5032237;28;20454;-41
2021/05/26 01:22:08;;;;;;;6.28;4.50;;;;;;;14.25;76.05;93611.69;5031585;28;20030;-41
2021/05/26 01:24:35;;;;;;;4.68;4.15;;;;;;;14.32;75.44;93622.75;5032161;28;20029;-43
2021/05/26 01:27:01;;;;;;;5.53;3.83;;;;;;;14.25;75.00;93595.75;5032060;28;20022;-40
2021/05/26 01:29:27;;;;;;;5.40;3.60;;;;;;;14.44;74.42;93612.63;5031944;28;20025;-43
2021/05/26 01:31:53;;;;;;;5.15;4.03;;;;;;;14.48;74.76;93617.78;5032136;28;20025;-41
2021/05/26 01:34:20;;;;;;;5.28;3.55;;;;;;;14.44;74.64;93617.47;5031730;28;20384;-42
2021/05/26 01:36:46;;;;;;;11.20;3.72;;;;;;;14.21;75.22;93611.31;5031948;28;20093;-42
2021/05/26 01:39:11;;;;;;;4.25;3.95;;;;;;;13.97;75.94;93615.59;5031552;28;20021;-40
2021/05/26 01:41:37;;;;;;;4.28;3.88;;;;;;;13.78;76.06;93623.69;5031605;28;20029;-40
2021/05/26 01:44:04;;;;;;;4.72;3.90;;;;;;;13.88;75.61;93624.53;5031814;28;20060;-43
2021/05/26 01:46:29;;;;;;;11.70;3.80;;;;;;;13.92;75.64;93619.34;5031805;28;20021;-41
2021/05/26 01:48:55;;;;;;;8.65;5.45;;;;;;;13.93;76.03;93626.38;5035846;28;20107;-42
2021/05/26 01:51:20;;;;;;;6.53;4.57;;;;;;;13.76;77.01;93628.34;5051230;28;20324;-41
2021/05/26 01:53:46;;;;;;;10.73;4.82;;;;;;;13.53;78.29;93632.00;5051243;28;20061;-41
2021/05/26 01:56:31;;;;;;;5.30;4.70;;;;;;;13.63;78.51;93632.13;5051160;28;20017;-41
2021/05/26 01:58:57;;;;;;;11.40;4.20;;;;;;;13.75;77.76;93633.19;5051501;28;20025;-46
2021/05/26 02:01:24;;;;;;;6.22;4.93;;;;;;;13.95;77.26;93629.31;5051292;28;20029;-41
2021/05/26 02:03:51;;;;;;;6.32;4.22;;;;;;;13.93;76.91;93628.41;5051038;28;20033;-41
2021/05/26 02:06:18;;;;;;;7.20;5.15;;;;;;;13.93;77.32;93625.63;5051192;28;20028;-41
2021/05/26 02:08:46;;;;;;;4.68;4.13;;;;;;;13.93;77.35;93620.81;5032253;28;20017;-42
2021/05/26 02:14:00;;;;;;;12.00;6.82;;;;;;;14.11;77.03;93613.28;5031325;28;20568;-42
2021/05/26 02:16:25;;;;;;;7.57;5.40;;;;;;;14.09;77.25;93627.00;5031094;28;20024;-43
2021/05/26 02:18:51;;;;;;;6.18;5.57;;;;;;;14.14;76.75;93628.81;5030815;28;20427;-42
2021/05/26 02:21:16;;;;;;;14.52;7.13;;;;;;;14.12;76.97;93628.66;5031059;28;20029;-41
2021/05/26 02:23:42;;;;;;;8.18;5.47;;;;;;;14.10;76.74;93622.91;5031007;28;20414;-43
2021/05/26 02:26:07;;;;;;;9.27;5.78;;;;;;;14.07;76.63;93629.59;5030670;28;20029;-43
2021/05/26 02:28:33;;;;;;;10.00;6.05;;;;;;;13.97;77.30;93626.00;5031255;28;20017;-43
2021/05/26 02:30:58;;;;;;;9.60;6.45;;;;;;;14.07;77.30;93629.59;5030633;28;20538;-41
2021/05/26 02:33:24;;;;;;;7.40;5.65;;;;;;;14.20;76.67;93623.75;5030139;28;20028;-41
2021/05/26 02:35:49;;;;;;;6.15;5.10;;;;;;;14.14;76.73;93629.53;5030873;28;20515;-41
2021/05/26 02:38:15;;;;;;;6.45;5.40;;;;;;;14.22;76.72;93623.91;5030534;28;20029;-41
2021/05/26 02:40:40;;;;;;;8.95;6.05;;;;;;;14.17;76.71;93630.44;5030812;28;20029;-42
2021/05/26 02:43:06;;;;;;;7.45;5.30;;;;;;;14.00;76.32;93617.25;5030655;28;20491;-42
2021/05/26 02:45:32;;;;;;;7.35;5.57;;;;;;;13.77;76.91;93627.06;5037521;28;20021;-42
2021/05/26 02:47:58;;;;;;;6.22;4.80;;;;;;;13.54;76.97;93630.69;5050166;28;20025;-41
2021/05/26 02:50:24;;;;;;;8.52;4.75;;;;;;;13.41;77.53;93639.28;5050497;28;20025;-42
2021/05/26 02:52:51;;;;;;;6.75;5.05;;;;;;;13.61;76.75;93634.72;5050602;28;20521;-41
2021/05/26 02:55:21;;;;;;;5.78;4.60;;;;;;;13.68;76.58;93642.28;5050054;28;20029;-43
2021/05/26 02:57:47;;;;;;;7.80;4.82;;;;;;;13.71;76.92;93645.97;5050199;28;20024;-42
2021/05/26 03:00:15;;;;;;;8.00;5.95;;;;;;;13.46;77.40;93643.88;5050059;28;20083;-41
2021/05/26 03:02:40;;;;;;;6.60;4.88;;;;;;;13.48;77.53;93637.75;5050473;28;20079;-40
2021/05/26 03:05:06;;;;;;;11.05;5.05;;;;;;;13.47;78.08;93650.88;5050274;28;20111;-42
2021/05/26 03:07:32;;;;;;;6.90;5.53;;;;;;;13.42;78.19;93651.84;5041090;28;20403;-42
2021/05/26 03:09:57;;;;;;;8.25;5.78;;;;;;;13.42;78.49;93656.66;5030112;28;20035;-40
2021/05/26 03:12:23;;;;;;;7.28;5.63;;;;;;;13.52;78.15;93652.72;5030318;28;20017;-40
2021/05/26 03:14:49;;;;;;;10.88;6.15;;;;;;;13.47;78.36;93656.44;5030382;28;20510;-43
2021/05/26 03:17:14;;;;;;;8.20;5.60;;;;;;;13.46;78.42;93654.22;5029929;28;20111;-42
2021/05/26 03:19:40;;;;;;;5.30;4.80;;;;;;;13.42;78.55;93664.97;5030064;28;20465;-41
2021/05/26 03:22:05;;;;;;;7.03;5.40;;;;;;;13.67;77.37;93672.06;5028060;28;20052;-41
2021/05/26 03:24:31;;;;;;;5.60;4.93;;;;;;;13.66;76.79;93673.34;5027580;28;20029;-42
2021/05/26 03:26:56;;;;;;;8.43;6.60;;;;;;;13.65;77.97;93668.38;5027829;28;20116;-42
2021/05/26 03:29:22;;;;;;;8.70;5.80;;;;;;;13.63;78.41;93680.03;5027474;28;20442;-40
2021/05/26 03:31:47;;;;;;;10.57;6.00;;;;;;;13.83;78.31;93671.97;5027769;28;20060;-42
2021/05/26 03:34:13;;;;;;;12.57;7.75;;;;;;;13.86;78.16;93668.78;5027370;28;20086;-41
2021/05/26 03:36:39;;;;;;;8.32;5.68;;;;;;;13.78;78.40;93678.47;5027733;28;20030;-42
2021/05/26 03:39:06;;;;;;;8.40;6.05;;;;;;;13.71;78.50;93676.50;5028817;28;20060;-44
2021/05/26 03:41:32;;;;;;;10.25;5.82;;;;;;;13.80;78.65;93673.06;5030529;28;20096;-43
2021/05/26 03:43:57;;;;;;;8.80;5.95;;;;;;;13.80;78.31;93676.59;5029110;28;20445;-44
2021/05/26 03:46:24;;;;;;;10.70;6.50;;;;;;;13.80;78.76;93673.81;5032062;28;20465;-43
2021/05/26 03:48:49;;;;;;;10.70;6.40;;;;;;;13.88;78.56;93665.47;5031678;28;20021;-44
2021/05/26 03:51:15;;;;;;;8.88;6.13;;;;;;;13.97;78.92;93678.72;5031387;28;20079;-41
2021/05/26 03:53:40;;;;;;;7.82;5.18;;;;;;;14.13;78.28;93669.72;5031692;28;20403;-41
2021/05/26 03:56:06;;;;;;;10.18;5.38;;;;;;;14.23;77.74;93669.81;5031810;28;20029;-42
2021/05/26 03:58:31;;;;;;;6.55;5.15;;;;;;;14.24;77.73;93674.06;5032193;28;20315;-43
2021/05/26 04:00:57;;;;;;;6.90;5.53;;;;;;;14.29;77.38;93667.59;5033632;28;20108;-41
2021/05/26 04:03:23;;;;;;;6.15;4.68;;;;;;;14.17;78.34;93663.75;5033686;28;20029;-43
2021/05/26 04:05:49;;;;;;;13.73;6.00;;;;;;;14.07;78.96;93660.88;5033381;28;20025;-41
2021/05/26 04:08:14;;;;;;;7.95;6.53;;;;;;;14.18;78.29;93651.34;5032900;28;20514;-43
2021/05/26 04:10:39;;;;;;;21.20;5.93;;;;;;;14.11;79.03;93679.91;5033698;28;20518;-42
2021/05/26 04:13:05;;;;;;;7.88;6.47;;;;;;;14.12;79.46;93682.13;5033386;28;20471;-40
2021/05/26 04:15:30;;;;;;;10.05;6.03;;;;;;;14.37;78.97;93682.16;5033332;28;20061;-42
2021/05/26 04:18:05;;;;;;;7.93;5.70;;;;;;;14.38;79.70;93686.38;5033116;28;20051;-40
2021/05/26 04:20:31;;;;;;;5.43;4.43;;;;;;;14.51;79.47;93683.31;5033460;28;20029;-40
2021/05/26 04:22:57;;;;;;;13.88;4.88;;;;;;;14.55;79.60;93686.44;5033295;28;20490;-40
2021/05/26 04:25:22;;;;;;;7.43;5.25;;;;;;;14.73;80.36;93684.41;5033216;28;20419;-42
2021/05/26 04:27:48;;;;;;;7.63;5.40;;;;;;;14.91;80.76;93686.66;5032598;28;20025;-42
2021/05/26 04:30:14;;;;;;;10.48;6.95;;;;;;;15.10;79.48;93684.03;5032816;28;20021;-42
2021/05/26 04:32:39;;;;;;;7.13;5.57;;;;;;;15.21;79.14;93680.03;5033197;28;20029;-41
2021/05/26 04:35:05;;;;;;;7.95;5.93;;;;;;;15.36;78.15;93671.50;5032738;28;20021;-43
2021/05/26 04:37:31;;;;;;;7.20;5.53;;;;;;;15.58;78.09;93686.47;5035929;28;20050;-44
2021/05/26 04:39:56;;;;;;;6.88;5.63;;;;;;;15.65;79.12;93683.59;5053001;28;20071;-45
2021/05/26 04:42:22;;;;;;;7.82;6.07;;;;;;;15.73;79.14;93680.69;5052919;28;20147;-44
2021/05/26 04:44:47;;;;;;;8.70;5.28;;;;;;;15.83;78.53;93684.28;5052559;28;20032;-46
2021/05/26 04:47:12;;;;;;;7.93;5.03;;;;;;;16.04;79.75;93681.03;5050969;28;20029;-45
2021/05/26 04:49:38;;;;;;;10.35;6.35;;;;;;;16.10;80.95;93682.22;5052798;28;20021;-42
2021/05/26 04:52:04;;;;;;;8.77;6.40;;;;;;;16.24;81.33;93685.38;5052726;28;20576;-42
2021/05/26 04:54:31;;;;;;;10.80;7.35;;;;;;;16.33;81.22;93687.47;5052682;28;20552;-42
2021/05/26 04:56:56;;;;;;;9.10;6.47;;;;;;;16.48;82.91;93692.81;5051521;28;20498;-41
2021/05/26 04:59:22;;;;;;;8.07;6.93;;;;;;;16.64;83.56;93694.78;5052492;28;20041;-42
2021/05/26 05:01:47;;;;;;;12.30;7.25;;;;;;;16.70;84.56;93682.63;5052209;28;20036;-42
2021/05/26 05:04:12;;;;;;;10.95;7.18;;;;;;;16.83;84.19;93690.56;5052195;28;20025;-41
2021/05/26 05:06:38;;;;;;;11.45;7.20;;;;;;;16.93;84.26;93694.09;5052451;28;20032;-43
2021/05/26 05:09:06;;;;;;;11.05;8.10;;;;;;;16.92;84.39;93690.56;5032350;28;20040;-43
2021/05/26 05:11:32;;;;;;;12.83;7.73;;;;;;;16.94;84.01;93687.94;5032245;28;20026;-42
2021/05/26 05:13:57;;;;;;;10.82;7.38;;;;;;;16.97;83.81;93694.41;5032112;28;20033;-41
2021/05/26 05:16:23;;;;;;;14.38;6.93;;;;;;;16.97;83.49;93697.19;5032085;28;20021;-43
2021/05/26 05:18:48;;;;;;;11.63;6.88;;;;;;;16.99;83.20;93695.28;4992401;28;20042;-42
2021/05/26 05:21:14;;;;;;;8.90;6.50;;;;;;;16.97;82.84;93702.78;4992872;28;20034;-43
2021/05/26 05:23:39;;;;;;;13.48;7.90;;;;;;;16.97;82.86;93705.56;4992770;28;20030;-43
2021/05/26 05:26:05;;;;;;;8.88;6.75;;;;;;;17.02;82.77;93704.53;4992801;28;20035;-45
2021/05/26 05:28:30;;;;;;;8.90;6.00;;;;;;;17.05;82.36;93708.94;4992930;28;20089;-41
2021/05/26 05:30:55;;;;;;;7.38;6.13;;;;;;;17.18;81.55;93702.94;4991703;28;20061;-41
2021/05/26 05:33:21;;;;;;;9.35;6.38;;;;;;;17.12;80.89;93714.41;4992037;28;20038;-43
2021/05/26 05:35:47;;;;;;;8.20;6.43;;;;;;;17.16;81.20;93711.16;5011687;28;20033;-42
2021/05/26 05:38:12;;;;;;;9.82;6.28;;;;;;;17.17;81.39;93707.06;5012189;28;20103;-45
2021/05/26 05:40:37;;;;;;;13.40;6.70;;;;;;;17.22;81.20;93709.56;5012228;28;20117;-43
2021/05/26 05:43:03;;;;;;;11.45;6.93;;;;;;;17.22;80.55;93708.81;5011755;28;20022;-43
2021/05/26 05:45:28;;;;;;;11.55;6.13;;;;;;;17.31;80.13;93722.03;5011835;28;20026;-41
2021/05/26 05:47:54;;;;;;;10.65;6.72;;;;;;;17.33;79.34;93717.34;5011940;28;20030;-45
2021/05/26 05:50:19;;;;;;;9.70;6.30;;;;;;;17.30;79.47;93715.00;5011768;28;20030;-44
2021/05/26 05:52:48;;;;;;;10.02;6.38;;;;;;;17.03;80.24;93722.75;5011870;28;20022;-41
2021/05/26 05:55:14;;;;;;;9.82;5.78;;;;;;;16.79;81.02;93698.63;5011807;28;20456;-40
2021/05/26 05:57:40;;;;;;;10.77;6.40;;;;;;;16.73;81.01;93698.91;5011910;28;20022;-41
2021/05/26 06:00:07;;;;;;;7.53;5.57;;;;;;;17.06;80.69;93719.53;5011781;28;20393;-44
2021/05/26 06:02:33;;;;;;;9.68;5.43;;;;;;;17.18;80.64;93722.47;5011759;28;20033;-41
2021/05/26 06:04:58;;;;;;;9.60;5.72;;;;;;;17.33;80.11;93716.59;5011761;28;20025;-42
2021/05/26 06:07:23;;;;;;;7.70;5.80;;;;;;;17.53;78.86;93723.69;5001994;28;20033;-43
2021/05/26 06:09:51;;;;;;;10.07;6.57;;;;;;;17.67;78.49;93719.13;4991767;28;20034;-42
2021/05/26 06:12:16;;;;;;;8.80;5.28;;;;;;;17.74;77.06;93718.25;4991672;28;20030;-44
2021/05/26 06:14:42;;;;;;;5.97;4.63;;;;;;;17.79;76.47;93714.41;4991920;28;20037;-42
2021/05/26 06:17:07;;;;;;;5.35;4.28;;;;;;;17.92;75.50;93713.97;5003455;28;20123;-43
2021/05/26 06:19:33;;;;;;;7.72;4.07;;;;;;;18.20;73.91;93718.00;5031195;28;20091;-42
2021/05/26 06:21:58;;;;;;;6.53;4.60;;;;;;;18.44;73.68;93718.97;5030825;28;20477;-41
2021/05/26 06:24:24;;;;;;;11.40;5.65;;;;;;;18.68;72.71;93718.59;5030787;28;20040;-42
2021/05/26 06:26:49;;;;;;;6.47;4.82;;;;;;;18.93;71.38;93718.91;5030784;28;20032;-42
2021/05/26 06:29:15;;;;;;;4.50;3.78;;;;;;;19.13;70.57;93719.53;5030640;28;20033;-43
2021/05/26 06:31:40;;;;;;;3.83;2.65;;;;;;;19.42;69.25;93702.56;5047370;28;20032;-45
2021/05/26 06:34:05;;;;;;;6.85;3.42;;;;;;;19.62;68.62;93710.19;5050507;28;20514;-42
2021/05/26 06:36:35;;;;;;;6.40;4.40;;;;;;;20.04;67.47;93700.25;5049567;28;20036;-42
2021/05/26 06:39:01;;;;;;;4.32;3.30;;;;;;;20.40;66.44;93697.66;5050467;28;20391;-44
2021/05/26 06:41:27;;;;;;;4.47;3.28;;;;;;;20.58;64.57;93702.91;5050415;28;20027;-44
2021/05/26 06:43:52;;;;;;;5.20;3.78;;;;;;;20.84;63.71;93702.44;5050655;28;20029;-44
2021/05/26 06:46:17;;;;;;;7.80;3.65;;;;;;;20.79;64.09;93695.13;5050245;28;20029;-43
2021/05/26 06:48:43;;;;;;;4.82;3.55;;;;;;;20.90;62.53;93694.38;5050305;28;20029;-44
2021/05/26 06:51:08;;;;;;;3.80;2.60;;;;;;;20.81;62.65;93700.13;5050459;28;20032;-43
2021/05/26 06:53:34;;;;;;;4.53;3.10;;;;;;;21.08;61.83;93703.19;5050345;28;20024;-44
2021/05/26 06:55:59;;;;;;;3.30;2.92;;;;;;;21.14;61.71;93712.69;5050464;28;20025;-42
2021/05/26 06:58:25;;;;;;;4.40;3.45;;;;;;;21.08;61.71;93706.00;5048684;28;20031;-42
2021/05/26 07:00:50;;;;;;;4.10;3.13;;;;;;;21.29;60.62;93714.25;5049833;28;20036;-41
2021/05/26 07:03:16;;;;;;;5.68;3.53;;;;;;;21.37;61.05;93716.81;5049976;28;20025;-46
2021/05/26 07:05:42;;;;;;;3.85;3.08;;;;;;;21.29;61.09;93719.16;5050442;28;20031;-42
2021/05/26 07:08:07;;;;;;;3.53;3.10;;;;;;;;;;5036427;28;20029;-42
2021/05/26 07:10:32;;;;;;;4.40;2.40;;;;;;;21.87;58.91;93712.03;5030462;28;20036;-46
2021/05/26 07:12:58;;;;;;;4.63;3.20;;;;;;;22.24;58.38;93703.53;5030442;28;20486;-43
2021/05/26 07:15:24;;;;;;;4.80;2.92;;;;;;;22.77;57.80;93701.50;5030026;28;20060;-42
2021/05/26 07:17:49;;;;;;;4.90;2.95;;;;;;;23.09;55.56;93694.00;5029815;28;20077;-45
2021/05/26 07:20:16;;;;;;;5.18;3.15;;;;;;;23.08;56.07;93695.38;5029464;28;20121;-43
2021/05/26 07:22:42;;;;;;;9.60;2.95;;;;;;;23.46;54.25;93694.53;5030351;28;20057;-42
2021/05/26 07:25:08;;;;;;;2.85;2.50;;;;;;;23.63;54.19;93691.16;5029888;28;20061;-45
2021/05/26 07:27:34;;;;;;;6.50;2.70;;;;;;;24.58;50.29;93684.44;5043602;28;20037;-45
2021/05/26 07:30:00;;;;;;;3.22;2.30;;;;;;;25.26;49.37;93681.88;5049927;28;20123;-45
2021/05/26 07:32:25;;;;;;;4.13;2.13;;;;;;;26.44;46.69;93679.69;5050060;28;20037;-46
2021/05/26 07:34:51;;;;;;;2.55;1.73;;;;;;;27.58;43.95;93674.00;5050126;28;20086;-43
2021/05/26 07:37:16;;;;;;;5.45;2.00;;;;;;;28.84;40.58;93679.53;5049711;28;20025;-45
2021/05/26 07:39:42;;;;;;;2.05;1.85;;;;;;;29.41;38.62;93676.22;5050105;28;20055;-45
2021/05/26 07:42:09;;;;;;;2.17;1.33;;;;;;;29.78;36.84;93676.53;5050023;28;20029;-43
2021/05/26 07:44:34;;;;;;;6.22;2.08;;;;;;;30.76;35.54;93673.91;5049706;28;20044;-43
2021/05/26 07:47:00;;;;;;;1.55;1.40;;;;;;;31.77;34.06;93676.75;5049576;28;20025;-48
2021/05/26 07:49:26;;;;;;;1.35;1.20;;;;;;;32.32;32.63;93676.31;5049534;28;20025;-45
2021/05/26 07:51:54;;;;;;;4.43;1.15;;;;;;;32.77;31.31;93678.47;5049675;28;20518;-44
2021/05/26 07:54:22;;;;;;;1.52;1.42;;;;;;;33.64;30.96;93679.66;5049672;28;20024;-46
2021/05/26 07:56:48;;;;;;;2.70;0.95;;;;;;;33.63;29.97;93686.09;5049565;28;20033;-46
2021/05/26 07:59:13;;;;;;;2.10;1.50;;;;;;;33.91;29.00;93680.66;5049760;28;20029;-46
2021/05/26 08:01:39;;;;;;;1.33;1.23;;;;;;;34.00;28.67;93682.88;5049464;28;20411;-48
2021/05/26 08:04:04;;;;;;;1.58;1.10;;;;;;;34.22;28.70;93676.69;5048501;28;20024;-44
2021/05/26 08:06:30;;;;;;;1.30;1.20;;;;;;;34.12;28.48;93680.19;5049755;28;20542;-46
2021/05/26 08:08:55;;;;;;;1.20;1.10;;;;;;;34.30;27.87;93671.75;5029270;28;20540;-45
2021/05/26 08:11:21;;;;;;;1.65;1.02;;;;;;;34.98;27.32;93683.03;5029808;28;20033;-45
2021/05/26 08:13:46;;;;;;;2.30;1.27;;;;;;;35.03;26.99;93678.06;5029810;28;20026;-47
2021/05/26 08:16:12;;;;;;;10.20;1.75;;;;;;;35.20;27.59;93682.47;5029825;28;20022;-47
2021/05/26 08:18:37;;;;;;;2.20;1.60;;;;;;;35.21;25.58;93686.78;5029297;28;20419;-45
2021/05/26 08:21:03;;;;;;;1.30;1.20;;;;;;;35.22;25.81;93673.84;5029704;28;20032;-45
2021/05/26 08:23:28;;;;;;;2.63;1.50;;;;;;;34.85;27.47;93683.66;5040285;28;20033;-45
2021/05/26 08:25:54;;;;;;;1.27;1.00;;;;;;;35.15;27.11;93677.41;5049579;28;20064;-46
2021/05/26 08:28:20;;;;;;;1.13;0.88;;;;;;;35.31;26.47;93672.47;5049638;28;20031;-44
2021/05/26 08:30:45;;;;;;;1.00;0.90;;;;;;;35.91;25.62;93660.47;5049744;28;20487;-44
2021/05/26 08:33:12;;;;;;;1.63;1.10;;;;;;;36.33;25.01;93656.97;5052828;28;20029;-45
2021/05/26 08:35:37;;;;;;;1.88;1.17;;;;;;;36.43;24.91;93665.63;5053100;28;20032;-46
2021/05/26 08:38:03;;;;;;;1.10;1.00;;;;;;;36.72;24.71;93663.47;5052417;28;20020;-44
2021/05/26 08:40:29;;;;;;;1.52;0.98;;;;;;;37.03;24.46;93659.88;5053034;28;20082;-44
2021/05/26 08:42:55;;;;;;;1.05;0.95;;;;;;;36.83;23.46;93659.13;5052700;28;20025;-43
2021/05/26 08:45:21;;;;;;;1.40;1.30;;;;;;;36.41;25.55;93656.97;5052497;28;20033;-45
2021/05/26 08:47:52;;;;;;;1.70;1.10;;;;;;;36.59;24.94;93650.53;5052501;28;20029;-44
2021/05/26 08:50:17;;;;;;;1.77;1.27;;;;;;;36.74;25.63;93663.47;5052572;28;20541;-42
2021/05/26 08:52:42;;;;;;;1.80;1.23;;;;;;;36.76;23.58;93655.56;5052845;28;20033;-43
2021/05/26 08:55:17;;;;;;;1.95;1.23;;;;;;;36.93;24.54;93662.75;5034958;28;20028;-45
2021/05/26 08:57:43;;;;;;;2.10;1.38;;;;;;;37.15;24.73;93659.09;5052750;28;20025;-44
2021/05/26 09:00:09;;;;;;;1.30;1.20;;;;;;;37.12;23.65;93660.56;5052375;28;20560;-46
2021/05/26 09:02:35;;;;;;;2.08;1.42;;;;;;;36.93;24.09;93648.34;5052591;28;20029;-45
2021/05/26 09:05:00;;;;;;;3.13;1.63;;;;;;;37.01;24.72;93650.50;5052458;28;20482;-43
2021/05/26 09:07:34;;;;;;;1.95;1.65;;;;;;;36.70;24.51;93652.69;5047380;28;20021;-46
2021/05/26 09:10:06;;;;;;;2.25;1.30;;;;;;;36.85;24.86;93648.34;5052139;28;20031;-44
2021/05/26 09:12:41;;;;;;;1.40;1.20;;;;;;;37.19;23.66;93648.28;5052207;28;20478;-45
2021/05/26 09:15:13;;;;;;;3.58;1.40;;;;;;;37.06;24.54;93649.75;5052565;28;20115;-46
2021/05/26 09:17:39;;;;;;;1.98;1.23;;;;;;;36.95;25.71;93642.59;5052000;28;20057;-45
2021/05/26 09:20:13;;;;;;;4.22;1.30;;;;;;;37.12;24.14;93640.41;5038088;28;20040;-45
2021/05/26 09:22:41;;;;;;;3.67;1.63;;;;;;;36.29;25.53;93643.31;5032268;28;20037;-46
2021/05/26 09:25:07;;;;;;;1.77;1.38;;;;;;;35.85;26.74;93633.88;5031886;28;20036;-44
2021/05/26 09:27:33;;;;;;;2.65;1.48;;;;;;;36.15;25.80;93631.81;5031472;28;20064;-46
2021/05/26 09:29:58;;;;;;;1.70;1.50;;;;;;;36.50;25.61;93630.41;5032095;28;20036;-44
2021/05/26 09:32:31;;;;;;;2.92;1.50;;;;;;;36.33;25.58;93625.34;5032167;28;20029;-43
2021/05/26 09:34:58;;;;;;;2.03;1.45;;;;;;;36.03;26.15;93631.81;5032107;28;20041;-43
2021/05/26 09:37:27;;;;;;;3.17;1.58;;;;;;;35.84;25.85;93629.59;5031998;28;20108;-44
2021/05/26 09:40:03;;;;;;;5.50;2.03;;;;;;;35.61;25.50;93623.78;5031997;28;20112;-48
2021/05/26 09:42:32;;;;;;;2.90;1.67;;;;;;;35.94;25.43;93618.09;5031668;28;20033;-46
2021/05/26 09:45:19;;;;;;;2.28;1.10;;;;;;;35.61;26.18;93629.53;5031867;28;20033;-46
2021/05/26 09:47:47;;;;;;;1.60;1.50;;;;;;;35.96;25.60;93627.47;5031504;28;20044;-48
2021/05/26 09:50:21;;;;;;;2.45;1.88;;;;;;;35.13;26.77;93625.75;5031596;28;20487;-45
2021/05/26 09:53:00;;;;;;;1.52;1.35;;;;;;;35.84;24.99;93620.97;5031746;28;20029;-42
2021/05/26 09:55:37;;;;;;;1.48;1.25;;;;;;;35.71;25.20;93620.94;5031698;28;20025;-46
2021/05/26 09:58:11;;;;;;;2.33;1.73;;;;;;;35.95;25.80;93625.31;5031780;28;20048;-44
2021/05/26 10:00:38;;;;;;;1.80;1.38;;;;;;;36.10;26.25;93629.66;5031350;28;20479;-47
2021/05/26 10:03:05;;;;;;;1.40;1.05;;;;;;;35.64;26.20;93605.13;5031581;28;20029;-46
2021/05/26 10:05:31;;;;;;;1.27;1.02;;;;;;;35.29;26.13;93625.81;5031235;28;20491;-46
2021/05/26 10:07:58;;;;;;;2.00;1.23;;;;;;;34.72;26.17;93598.94;5030351;28;20117;-45
2021/05/26 10:10:28;;;;;;;2.83;1.67;;;;;;;34.54;26.96;93616.78;5030143;28;20037;-43
2021/05/26 10:12:56;;;;;;;1.85;1.65;;;;;;;33.66;28.23;93613.81;5031429;28;20076;-46
2021/05/26 10:15:24;;;;;;;1.65;1.50;;;;;;;33.17;29.75;93606.81;5019548;28;20036;-46
2021/05/26 10:17:52;;;;;;;2.03;1.75;;;;;;;33.15;28.95;93609.66;5050397;28;20049;-46
2021/05/26 10:20:20;;;;;;;1.52;1.42;;;;;;;32.31;30.40;93609.16;5050800;28;20071;-46
2021/05/26 10:22:47;;;;;;;2.15;1.95;;;;;;;32.52;32.08;93602.34;5051087;28;20438;-47
2021/05/26 10:25:14;;;;;;;2.75;2.08;;;;;;;32.73;31.29;93592.63;5050659;28;20033;-43
2021/05/26 10:27:45;;;;;;;1.58;1.45;;;;;;;33.33;31.50;93594.84;5050636;28;20135;-45
2021/05/26 10:30:11;;;;;;;3.08;1.75;;;;;;;33.93;28.24;93601.19;5050883;28;20060;-45
2021/05/26 10:32:57;;;;;;;7.80;3.00;;;;;;;32.92;30.25;93581.44;5050932;28;20067;-47
2021/05/26 10:35:23;;;;;;;2.08;1.73;;;;;;;32.44;30.27;93596.50;5050776;28;20030;-46
2021/05/26 10:38:06;;;;;;;1.83;1.70;;;;;;;31.94;31.73;93598.53;5050811;28;20444;-44
2021/05/26 10:40:40;;;;;;;3.72;2.25;;;;;;;31.30;33.18;93587.38;5050553;28;20468;-44
2021/05/26 10:43:15;;;;;;;2.40;1.67;;;;;;;30.86;34.75;93585.75;5050709;28;20040;-47
2021/05/26 10:45:41;;;;;;;2.60;1.85;;;;;;;31.09;34.02;93579.84;5050694;28;20047;-46
2021/05/26 10:48:06;;;;;;;2.50;1.85;;;;;;;31.12;34.46;93578.47;5050530;28;20029;-45
2021/05/26 10:50:44;;;;;;;2.38;1.67;;;;;;;31.40;34.30;93576.16;5050289;28;20553;-44
2021/05/26 10:53:10;;;;;;;1.92;1.50;;;;;;;31.76;34.02;93570.38;5049970;28;20574;-44
2021/05/26 10:55:45;;;;;;;2.22;1.70;;;;;;;31.76;33.56;93576.09;5050059;28;20041;-48
2021/05/26 10:58:12;;;;;;;2.22;1.65;;;;;;;31.62;32.66;93567.28;5050450;28;20029;-44
2021/05/26 11:00:39;;;;;;;2.50;1.77;;;;;;;31.30;33.31;93550.28;5050465;28;20454;-44
2021/05/26 11:03:23;;;;;;;1.40;1.30;;;;;;;31.01;35.43;93570.41;5050048;28;20031;-42
2021/05/26 11:05:49;;;;;;;2.75;1.73;;;;;;;30.98;33.92;93566.78;5050328;28;20028;-44
2021/05/26 11:11:22;;;;;;;2.35;1.63;;;;;;;30.61;34.41;93558.88;4977081;28;20478;-44
2021/05/26 11:14:05;;;;;;;2.38;1.92;;;;;;;30.38;36.13;93563.38;5050003;28;20513;-46
2021/05/26 11:16:40;;;;;;;2.38;1.27;;;;;;;30.60;35.91;93561.00;5049983;28;20529;-44
2021/05/26 11:19:13;;;;;;;3.60;1.92;;;;;;;30.76;35.75;93539.94;5010560;28;20045;-44
2021/05/26 11:21:57;;;;;;;1.92;1.67;;;;;;;30.74;34.83;93540.63;5010692;28;20037;-45
2021/05/26 11:24:27;;;;;;;2.72;1.70;;;;;;;30.66;37.42;93541.19;5010376;28;20038;-46
2021/05/26 11:26:52;;;;;;;2.50;2.08;;;;;;;30.58;37.25;93540.31;5010290;28;20022;-47
2021/05/26 11:29:36;;;;;;;2.03;1.80;;;;;;;30.51;37.22;93539.44;5010369;28;20100;-46
2021/05/26 11:32:09;;;;;;;2.50;1.92;;;;;;;30.05;37.55;93532.69;5010317;28;20025;-47
2021/05/26 11:34:35;;;;;;;2.20;1.58;;;;;;;30.35;37.03;93533.41;5010251;28;20041;-43
2021/05/26 11:37:02;;;;;;;2.17;1.98;;;;;;;30.15;37.86;93524.38;5010478;28;20498;-46